sensor_id;sensor_type;location;lat;lon;timestamp;P1;durP1;ratioP1;P2;durP2;ratioP2
51560;SDS011;37654;51.262;17.058;2023-04-09T00:00:37;52.17;;;28.98;;
51560;SDS011;37654;51.262;17.058;2023-04-09T00:03:02;62.55;;;32.08;;
51560;SDS011;37654;51.262;17.058;2023-04-09T00:05:28;50.47;;;28.95;;
51560;SDS011;37654;51.262;17.058;2023-04-09T00:07:53;50.25;;;27.98;;
51560;SDS011;37654;51.262;17.058;2023-04-09T00:10:19;52.78;;;29.83;;
51560;SDS011;37654;51.262;17.058;2023-04-09T00:12:45;53.72;;;28.85;;
51560;SDS011;37654;51.262;17.058;2023-04-09T00:15:10;51.67;;;29.17;;
51560;SDS011;37654;51.262;17.058;2023-04-09T00:17:36;53.17;;;30.25;;
51560;SDS011;37654;51.262;17.058;2023-04-09T00:20:01;50.35;;;28.90;;
51560;SDS011;37654;51.262;17.058;2023-04-09T00:22:28;51.72;;;30.10;;
51560;SDS011;37654;51.262;17.058;2023-04-09T00:24:53;50.05;;;30.35;;
51560;SDS011;37654;51.262;17.058;2023-04-09T00:27:19;60.38;;;32.97;;
51560;SDS011;37654;51.262;17.058;2023-04-09T00:29:45;50.80;;;28.08;;
51560;SDS011;37654;51.262;17.058;2023-04-09T00:32:11;52.08;;;28.23;;
51560;SDS011;37654;51.262;17.058;2023-04-09T00:34:37;54.67;;;30.13;;
51560;SDS011;37654;51.262;17.058;2023-04-09T00:37:03;55.88;;;34.45;;
51560;SDS011;37654;51.262;17.058;2023-04-09T00:39:29;50.50;;;29.23;;
51560;SDS011;37654;51.262;17.058;2023-04-09T00:41:58;52.97;;;29.85;;
51560;SDS011;37654;51.262;17.058;2023-04-09T00:44:26;55.47;;;29.35;;
51560;SDS011;37654;51.262;17.058;2023-04-09T00:46:51;54.88;;;31.25;;
51560;SDS011;37654;51.262;17.058;2023-04-09T00:49:18;53.25;;;31.15;;
51560;SDS011;37654;51.262;17.058;2023-04-09T00:51:44;53.28;;;30.15;;
51560;SDS011;37654;51.262;17.058;2023-04-09T00:54:11;55.65;;;30.88;;
51560;SDS011;37654;51.262;17.058;2023-04-09T00:56:37;58.58;;;30.83;;
51560;SDS011;37654;51.262;17.058;2023-04-09T00:59:03;56.75;;;30.02;;
51560;SDS011;37654;51.262;17.058;2023-04-09T01:01:28;58.35;;;31.52;;
51560;SDS011;37654;51.262;17.058;2023-04-09T01:03:54;63.38;;;32.55;;
51560;SDS011;37654;51.262;17.058;2023-04-09T01:11:54;58.40;;;33.17;;
51560;SDS011;37654;51.262;17.058;2023-04-09T01:14:44;59.30;;;30.83;;
51560;SDS011;37654;51.262;17.058;2023-04-09T01:30:37;54.97;;;31.83;;
51560;SDS011;37654;51.262;17.058;2023-04-09T01:33:04;62.45;;;35.28;;
51560;SDS011;37654;51.262;17.058;2023-04-09T01:35:30;58.85;;;32.95;;
51560;SDS011;37654;51.262;17.058;2023-04-09T01:37:56;56.95;;;33.88;;
51560;SDS011;37654;51.262;17.058;2023-04-09T01:40:22;55.13;;;31.75;;
51560;SDS011;37654;51.262;17.058;2023-04-09T01:42:48;61.10;;;35.10;;
51560;SDS011;37654;51.262;17.058;2023-04-09T01:45:15;58.20;;;35.42;;
51560;SDS011;37654;51.262;17.058;2023-04-09T01:47:40;62.85;;;34.50;;
51560;SDS011;37654;51.262;17.058;2023-04-09T01:50:07;63.08;;;35.70;;
51560;SDS011;37654;51.262;17.058;2023-04-09T01:52:33;66.03;;;34.65;;
51560;SDS011;37654;51.262;17.058;2023-04-09T01:54:58;68.03;;;35.17;;
51560;SDS011;37654;51.262;17.058;2023-04-09T01:57:24;74.65;;;35.72;;
51560;SDS011;37654;51.262;17.058;2023-04-09T01:59:49;65.68;;;34.35;;
51560;SDS011;37654;51.262;17.058;2023-04-09T02:02:19;64.60;;;36.97;;
51560;SDS011;37654;51.262;17.058;2023-04-09T02:05:07;72.65;;;38.28;;
51560;SDS011;37654;51.262;17.058;2023-04-09T02:07:41;72.88;;;40.95;;
51560;SDS011;37654;51.262;17.058;2023-04-09T02:10:10;67.03;;;35.13;;
51560;SDS011;37654;51.262;17.058;2023-04-09T02:12:39;64.03;;;35.42;;
51560;SDS011;37654;51.262;17.058;2023-04-09T02:15:09;67.90;;;38.53;;
51560;SDS011;37654;51.262;17.058;2023-04-09T02:17:36;66.72;;;37.17;;
51560;SDS011;37654;51.262;17.058;2023-04-09T02:20:01;71.63;;;37.17;;
51560;SDS011;37654;51.262;17.058;2023-04-09T02:22:27;65.30;;;36.20;;
51560;SDS011;37654;51.262;17.058;2023-04-09T02:24:53;65.97;;;36.83;;
51560;SDS011;37654;51.262;17.058;2023-04-09T02:27:18;66.88;;;36.28;;
51560;SDS011;37654;51.262;17.058;2023-04-09T02:29:44;67.40;;;36.53;;
51560;SDS011;37654;51.262;17.058;2023-04-09T02:32:10;66.20;;;35.17;;
51560;SDS011;37654;51.262;17.058;2023-04-09T02:34:35;65.55;;;36.17;;
51560;SDS011;37654;51.262;17.058;2023-04-09T02:37:01;65.05;;;36.00;;
51560;SDS011;37654;51.262;17.058;2023-04-09T02:39:26;64.10;;;35.53;;
51560;SDS011;37654;51.262;17.058;2023-04-09T02:41:52;61.45;;;35.40;;
51560;SDS011;37654;51.262;17.058;2023-04-09T02:44:17;62.97;;;35.15;;
51560;SDS011;37654;51.262;17.058;2023-04-09T02:46:43;63.65;;;34.03;;
51560;SDS011;37654;51.262;17.058;2023-04-09T02:49:11;67.68;;;37.70;;
51560;SDS011;37654;51.262;17.058;2023-04-09T02:51:36;56.78;;;33.58;;
51560;SDS011;37654;51.262;17.058;2023-04-09T02:54:02;58.72;;;33.38;;
51560;SDS011;37654;51.262;17.058;2023-04-09T02:56:28;61.30;;;33.53;;
51560;SDS011;37654;51.262;17.058;2023-04-09T02:58:53;67.97;;;35.58;;
51560;SDS011;37654;51.262;17.058;2023-04-09T03:01:19;56.08;;;33.30;;
51560;SDS011;37654;51.262;17.058;2023-04-09T03:03:45;60.65;;;35.25;;
51560;SDS011;37654;51.262;17.058;2023-04-09T03:06:11;62.03;;;33.65;;
51560;SDS011;37654;51.262;17.058;2023-04-09T03:08:36;61.30;;;34.28;;
51560;SDS011;37654;51.262;17.058;2023-04-09T03:11:02;54.17;;;32.78;;
51560;SDS011;37654;51.262;17.058;2023-04-09T03:13:27;64.85;;;35.92;;
51560;SDS011;37654;51.262;17.058;2023-04-09T03:15:53;59.78;;;33.60;;
51560;SDS011;37654;51.262;17.058;2023-04-09T03:18:19;59.00;;;34.35;;
51560;SDS011;37654;51.262;17.058;2023-04-09T03:20:44;63.50;;;34.67;;
51560;SDS011;37654;51.262;17.058;2023-04-09T03:23:10;60.25;;;35.13;;
51560;SDS011;37654;51.262;17.058;2023-04-09T03:25:36;64.82;;;36.72;;
51560;SDS011;37654;51.262;17.058;2023-04-09T03:28:01;64.22;;;34.72;;
51560;SDS011;37654;51.262;17.058;2023-04-09T03:30:27;63.55;;;36.92;;
51560;SDS011;37654;51.262;17.058;2023-04-09T03:32:53;64.03;;;36.00;;
51560;SDS011;37654;51.262;17.058;2023-04-09T03:35:19;59.58;;;33.83;;
51560;SDS011;37654;51.262;17.058;2023-04-09T03:37:45;59.85;;;35.08;;
51560;SDS011;37654;51.262;17.058;2023-04-09T03:40:11;57.08;;;33.40;;
51560;SDS011;37654;51.262;17.058;2023-04-09T03:42:37;59.60;;;34.83;;
51560;SDS011;37654;51.262;17.058;2023-04-09T03:45:05;62.25;;;34.63;;
51560;SDS011;37654;51.262;17.058;2023-04-09T03:47:31;60.20;;;34.45;;
51560;SDS011;37654;51.262;17.058;2023-04-09T03:49:57;63.90;;;34.45;;
51560;SDS011;37654;51.262;17.058;2023-04-09T03:52:23;61.13;;;34.08;;
51560;SDS011;37654;51.262;17.058;2023-04-09T03:54:48;59.72;;;34.78;;
51560;SDS011;37654;51.262;17.058;2023-04-09T03:57:13;64.32;;;36.42;;
51560;SDS011;37654;51.262;17.058;2023-04-09T03:59:39;59.05;;;34.72;;
51560;SDS011;37654;51.262;17.058;2023-04-09T04:02:04;67.85;;;34.50;;
51560;SDS011;37654;51.262;17.058;2023-04-09T04:04:30;60.88;;;35.67;;
51560;SDS011;37654;51.262;17.058;2023-04-09T04:06:55;59.90;;;34.95;;
51560;SDS011;37654;51.262;17.058;2023-04-09T04:09:21;58.92;;;34.63;;
51560;SDS011;37654;51.262;17.058;2023-04-09T04:11:46;59.30;;;34.88;;
51560;SDS011;37654;51.262;17.058;2023-04-09T04:14:12;61.45;;;35.28;;
51560;SDS011;37654;51.262;17.058;2023-04-09T04:16:39;61.88;;;34.03;;
51560;SDS011;37654;51.262;17.058;2023-04-09T04:19:05;60.15;;;34.78;;
51560;SDS011;37654;51.262;17.058;2023-04-09T04:21:30;58.33;;;34.47;;
51560;SDS011;37654;51.262;17.058;2023-04-09T04:23:56;59.20;;;36.10;;
51560;SDS011;37654;51.262;17.058;2023-04-09T04:26:21;65.53;;;36.28;;
51560;SDS011;37654;51.262;17.058;2023-04-09T04:28:47;62.20;;;36.38;;
51560;SDS011;37654;51.262;17.058;2023-04-09T04:31:12;63.72;;;37.03;;
51560;SDS011;37654;51.262;17.058;2023-04-09T04:33:39;55.97;;;32.58;;
51560;SDS011;37654;51.262;17.058;2023-04-09T04:36:06;58.35;;;36.10;;
51560;SDS011;37654;51.262;17.058;2023-04-09T04:38:33;61.28;;;33.97;;
51560;SDS011;37654;51.262;17.058;2023-04-09T04:40:59;61.67;;;34.47;;
51560;SDS011;37654;51.262;17.058;2023-04-09T04:43:25;64.28;;;35.80;;
51560;SDS011;37654;51.262;17.058;2023-04-09T04:45:50;60.42;;;33.38;;
51560;SDS011;37654;51.262;17.058;2023-04-09T04:48:16;57.10;;;33.05;;
51560;SDS011;37654;51.262;17.058;2023-04-09T04:50:41;59.63;;;31.70;;
51560;SDS011;37654;51.262;17.058;2023-04-09T04:53:07;62.60;;;36.17;;
51560;SDS011;37654;51.262;17.058;2023-04-09T04:55:35;57.35;;;33.85;;
51560;SDS011;37654;51.262;17.058;2023-04-09T04:58:01;56.67;;;34.17;;
51560;SDS011;37654;51.262;17.058;2023-04-09T05:00:26;66.30;;;34.80;;
51560;SDS011;37654;51.262;17.058;2023-04-09T05:02:52;54.13;;;32.85;;
51560;SDS011;37654;51.262;17.058;2023-04-09T05:05:17;58.25;;;34.08;;
51560;SDS011;37654;51.262;17.058;2023-04-09T05:07:43;61.53;;;33.55;;
51560;SDS011;37654;51.262;17.058;2023-04-09T05:10:08;58.03;;;33.92;;
51560;SDS011;37654;51.262;17.058;2023-04-09T05:12:34;60.25;;;34.72;;
51560;SDS011;37654;51.262;17.058;2023-04-09T05:14:59;59.10;;;34.55;;
51560;SDS011;37654;51.262;17.058;2023-04-09T05:17:25;59.42;;;34.65;;
51560;SDS011;37654;51.262;17.058;2023-04-09T05:19:51;58.75;;;34.42;;
51560;SDS011;37654;51.262;17.058;2023-04-09T05:22:17;56.90;;;34.08;;
51560;SDS011;37654;51.262;17.058;2023-04-09T05:24:43;67.10;;;37.90;;
51560;SDS011;37654;51.262;17.058;2023-04-09T05:27:08;60.13;;;34.00;;
51560;SDS011;37654;51.262;17.058;2023-04-09T05:29:34;60.75;;;34.80;;
51560;SDS011;37654;51.262;17.058;2023-04-09T05:31:59;63.20;;;33.78;;
51560;SDS011;37654;51.262;17.058;2023-04-09T05:34:25;59.45;;;34.45;;
51560;SDS011;37654;51.262;17.058;2023-04-09T05:36:51;66.88;;;37.05;;
51560;SDS011;37654;51.262;17.058;2023-04-09T05:39:17;65.38;;;36.58;;
51560;SDS011;37654;51.262;17.058;2023-04-09T05:41:42;61.75;;;35.15;;
51560;SDS011;37654;51.262;17.058;2023-04-09T05:44:09;61.30;;;35.38;;
51560;SDS011;37654;51.262;17.058;2023-04-09T05:46:37;62.80;;;36.45;;
51560;SDS011;37654;51.262;17.058;2023-04-09T05:49:03;69.57;;;38.67;;
51560;SDS011;37654;51.262;17.058;2023-04-09T05:51:28;68.50;;;39.17;;
51560;SDS011;37654;51.262;17.058;2023-04-09T05:53:54;66.25;;;38.03;;
51560;SDS011;37654;51.262;17.058;2023-04-09T05:56:19;66.88;;;37.15;;
51560;SDS011;37654;51.262;17.058;2023-04-09T05:58:47;66.00;;;39.00;;
51560;SDS011;37654;51.262;17.058;2023-04-09T06:01:13;66.13;;;37.30;;
51560;SDS011;37654;51.262;17.058;2023-04-09T06:03:38;73.80;;;37.72;;
51560;SDS011;37654;51.262;17.058;2023-04-09T06:06:04;63.28;;;36.47;;
51560;SDS011;37654;51.262;17.058;2023-04-09T06:08:29;67.00;;;37.53;;
51560;SDS011;37654;51.262;17.058;2023-04-09T06:10:55;62.80;;;36.50;;
51560;SDS011;37654;51.262;17.058;2023-04-09T06:13:20;74.57;;;40.42;;
51560;SDS011;37654;51.262;17.058;2023-04-09T06:15:46;79.15;;;41.90;;
51560;SDS011;37654;51.262;17.058;2023-04-09T06:18:12;81.55;;;42.72;;
51560;SDS011;37654;51.262;17.058;2023-04-09T06:20:37;77.82;;;42.67;;
51560;SDS011;37654;51.262;17.058;2023-04-09T06:23:03;83.93;;;41.33;;
51560;SDS011;37654;51.262;17.058;2023-04-09T06:25:29;85.78;;;48.25;;
51560;SDS011;37654;51.262;17.058;2023-04-09T06:27:54;83.25;;;45.85;;
51560;SDS011;37654;51.262;17.058;2023-04-09T06:30:20;79.95;;;42.90;;
51560;SDS011;37654;51.262;17.058;2023-04-09T06:32:46;84.05;;;46.63;;
51560;SDS011;37654;51.262;17.058;2023-04-09T06:35:13;77.88;;;43.97;;
51560;SDS011;37654;51.262;17.058;2023-04-09T06:37:41;68.68;;;40.17;;
51560;SDS011;37654;51.262;17.058;2023-04-09T06:40:07;67.38;;;37.47;;
51560;SDS011;37654;51.262;17.058;2023-04-09T06:42:32;69.53;;;37.88;;
51560;SDS011;37654;51.262;17.058;2023-04-09T06:44:58;66.43;;;36.47;;
51560;SDS011;37654;51.262;17.058;2023-04-09T06:47:23;58.72;;;33.35;;
51560;SDS011;37654;51.262;17.058;2023-04-09T06:49:49;59.88;;;34.00;;
51560;SDS011;37654;51.262;17.058;2023-04-09T06:52:14;66.57;;;36.65;;
51560;SDS011;37654;51.262;17.058;2023-04-09T06:54:40;66.70;;;36.40;;
51560;SDS011;37654;51.262;17.058;2023-04-09T06:57:06;62.75;;;37.17;;
51560;SDS011;37654;51.262;17.058;2023-04-09T06:59:32;62.97;;;36.10;;
51560;SDS011;37654;51.262;17.058;2023-04-09T07:01:58;60.05;;;33.50;;
51560;SDS011;37654;51.262;17.058;2023-04-09T07:04:24;58.40;;;32.88;;
51560;SDS011;37654;51.262;17.058;2023-04-09T07:06:50;59.03;;;35.88;;
51560;SDS011;37654;51.262;17.058;2023-04-09T07:09:16;57.42;;;35.42;;
51560;SDS011;37654;51.262;17.058;2023-04-09T07:11:42;55.50;;;33.88;;
51560;SDS011;37654;51.262;17.058;2023-04-09T07:14:08;54.83;;;32.15;;
51560;SDS011;37654;51.262;17.058;2023-04-09T07:16:33;54.75;;;31.92;;
51560;SDS011;37654;51.262;17.058;2023-04-09T07:18:58;57.63;;;33.95;;
51560;SDS011;37654;51.262;17.058;2023-04-09T07:21:24;67.47;;;37.90;;
51560;SDS011;37654;51.262;17.058;2023-04-09T07:23:52;58.00;;;34.22;;
51560;SDS011;37654;51.262;17.058;2023-04-09T07:26:18;51.13;;;30.73;;
51560;SDS011;37654;51.262;17.058;2023-04-09T07:28:43;54.47;;;31.63;;
51560;SDS011;37654;51.262;17.058;2023-04-09T07:31:09;57.83;;;33.28;;
51560;SDS011;37654;51.262;17.058;2023-04-09T07:33:35;61.78;;;35.00;;
51560;SDS011;37654;51.262;17.058;2023-04-09T07:36:01;53.55;;;33.90;;
51560;SDS011;37654;51.262;17.058;2023-04-09T07:38:27;55.67;;;33.67;;
51560;SDS011;37654;51.262;17.058;2023-04-09T07:40:53;54.03;;;31.95;;
51560;SDS011;37654;51.262;17.058;2023-04-09T07:43:18;50.50;;;29.92;;
51560;SDS011;37654;51.262;17.058;2023-04-09T07:45:44;54.08;;;32.55;;
51560;SDS011;37654;51.262;17.058;2023-04-09T07:48:12;78.20;;;42.65;;
51560;SDS011;37654;51.262;17.058;2023-04-09T07:50:38;115.25;;;50.55;;
51560;SDS011;37654;51.262;17.058;2023-04-09T07:53:03;124.78;;;57.42;;
51560;SDS011;37654;51.262;17.058;2023-04-09T07:55:28;104.43;;;51.92;;
51560;SDS011;37654;51.262;17.058;2023-04-09T07:57:54;101.13;;;50.42;;
51560;SDS011;37654;51.262;17.058;2023-04-09T08:00:19;68.75;;;39.40;;
51560;SDS011;37654;51.262;17.058;2023-04-09T08:02:45;78.38;;;41.42;;
51560;SDS011;37654;51.262;17.058;2023-04-09T08:05:10;74.70;;;39.33;;
51560;SDS011;37654;51.262;17.058;2023-04-09T08:07:36;65.18;;;37.15;;
51560;SDS011;37654;51.262;17.058;2023-04-09T08:10:01;63.33;;;36.92;;
51560;SDS011;37654;51.262;17.058;2023-04-09T08:12:27;64.78;;;36.22;;
51560;SDS011;37654;51.262;17.058;2023-04-09T08:14:52;60.75;;;36.85;;
51560;SDS011;37654;51.262;17.058;2023-04-09T08:17:18;64.20;;;37.33;;
51560;SDS011;37654;51.262;17.058;2023-04-09T08:19:43;69.47;;;40.72;;
51560;SDS011;37654;51.262;17.058;2023-04-09T08:22:08;54.92;;;32.22;;
51560;SDS011;37654;51.262;17.058;2023-04-09T08:24:34;51.83;;;32.40;;
51560;SDS011;37654;51.262;17.058;2023-04-09T08:27:00;58.20;;;35.35;;
51560;SDS011;37654;51.262;17.058;2023-04-09T08:29:26;58.78;;;35.20;;
51560;SDS011;37654;51.262;17.058;2023-04-09T08:31:51;54.83;;;34.45;;
51560;SDS011;37654;51.262;17.058;2023-04-09T08:34:16;57.50;;;36.33;;
51560;SDS011;37654;51.262;17.058;2023-04-09T08:36:45;57.28;;;34.55;;
51560;SDS011;37654;51.262;17.058;2023-04-09T08:39:11;66.38;;;37.63;;
51560;SDS011;37654;51.262;17.058;2023-04-09T08:41:36;59.95;;;35.63;;
51560;SDS011;37654;51.262;17.058;2023-04-09T08:44:06;63.60;;;35.22;;
51560;SDS011;37654;51.262;17.058;2023-04-09T08:46:34;66.20;;;34.97;;
51560;SDS011;37654;51.262;17.058;2023-04-09T08:49:01;64.30;;;35.92;;
51560;SDS011;37654;51.262;17.058;2023-04-09T08:51:27;56.60;;;32.50;;
51560;SDS011;37654;51.262;17.058;2023-04-09T08:53:56;59.88;;;34.00;;
51560;SDS011;37654;51.262;17.058;2023-04-09T08:56:23;54.17;;;32.53;;
51560;SDS011;37654;51.262;17.058;2023-04-09T08:58:49;56.60;;;36.97;;
51560;SDS011;37654;51.262;17.058;2023-04-09T09:03:57;53.28;;;33.38;;
51560;SDS011;37654;51.262;17.058;2023-04-09T09:06:25;50.25;;;32.28;;
51560;SDS011;37654;51.262;17.058;2023-04-09T09:09:00;52.78;;;31.92;;
51560;SDS011;37654;51.262;17.058;2023-04-09T09:11:30;50.17;;;32.25;;
51560;SDS011;37654;51.262;17.058;2023-04-09T09:14:01;49.47;;;31.08;;
51560;SDS011;37654;51.262;17.058;2023-04-09T09:16:32;47.75;;;30.27;;
51560;SDS011;37654;51.262;17.058;2023-04-09T09:19:01;42.53;;;27.35;;
51560;SDS011;37654;51.262;17.058;2023-04-09T09:21:27;53.00;;;29.27;;
51560;SDS011;37654;51.262;17.058;2023-04-09T09:23:54;52.15;;;29.95;;
51560;SDS011;37654;51.262;17.058;2023-04-09T09:26:21;45.70;;;27.75;;
51560;SDS011;37654;51.262;17.058;2023-04-09T09:28:48;48.38;;;28.65;;
51560;SDS011;37654;51.262;17.058;2023-04-09T09:31:15;43.53;;;28.00;;
51560;SDS011;37654;51.262;17.058;2023-04-09T09:33:41;46.05;;;27.92;;
51560;SDS011;37654;51.262;17.058;2023-04-09T09:36:07;46.83;;;27.30;;
51560;SDS011;37654;51.262;17.058;2023-04-09T09:41:15;47.90;;;28.70;;
51560;SDS011;37654;51.262;17.058;2023-04-09T09:43:42;51.50;;;29.63;;
51560;SDS011;37654;51.262;17.058;2023-04-09T09:46:08;47.95;;;30.85;;
51560;SDS011;37654;51.262;17.058;2023-04-09T09:48:35;52.92;;;30.10;;
51560;SDS011;37654;51.262;17.058;2023-04-09T09:51:01;50.20;;;30.13;;
51560;SDS011;37654;51.262;17.058;2023-04-09T09:53:32;52.80;;;30.35;;
51560;SDS011;37654;51.262;17.058;2023-04-09T09:56:00;50.08;;;30.90;;
51560;SDS011;37654;51.262;17.058;2023-04-09T09:58:36;58.30;;;32.85;;
51560;SDS011;37654;51.262;17.058;2023-04-09T10:01:07;52.80;;;31.45;;
51560;SDS011;37654;51.262;17.058;2023-04-09T10:03:35;50.20;;;30.70;;
51560;SDS011;37654;51.262;17.058;2023-04-09T10:06:03;54.05;;;32.03;;
51560;SDS011;37654;51.262;17.058;2023-04-09T10:08:30;51.15;;;32.30;;
51560;SDS011;37654;51.262;17.058;2023-04-09T10:10:58;51.42;;;31.15;;
51560;SDS011;37654;51.262;17.058;2023-04-09T10:13:25;59.80;;;34.95;;
51560;SDS011;37654;51.262;17.058;2023-04-09T10:15:56;56.13;;;33.53;;
51560;SDS011;37654;51.262;17.058;2023-04-09T10:18:23;57.90;;;33.78;;
51560;SDS011;37654;51.262;17.058;2023-04-09T10:20:49;57.80;;;34.83;;
51560;SDS011;37654;51.262;17.058;2023-04-09T10:23:23;54.13;;;32.13;;
51560;SDS011;37654;51.262;17.058;2023-04-09T10:25:56;59.67;;;34.88;;
51560;SDS011;37654;51.262;17.058;2023-04-09T10:28:22;55.53;;;33.83;;
51560;SDS011;37654;51.262;17.058;2023-04-09T10:30:48;60.72;;;36.20;;
51560;SDS011;37654;51.262;17.058;2023-04-09T10:33:14;64.30;;;40.13;;
51560;SDS011;37654;51.262;17.058;2023-04-09T10:35:40;78.03;;;47.33;;
51560;SDS011;37654;51.262;17.058;2023-04-09T10:38:12;75.72;;;45.72;;
51560;SDS011;37654;51.262;17.058;2023-04-09T10:40:49;69.82;;;43.15;;
51560;SDS011;37654;51.262;17.058;2023-04-09T10:43:17;55.35;;;34.88;;
51560;SDS011;37654;51.262;17.058;2023-04-09T10:45:44;66.15;;;40.05;;
51560;SDS011;37654;51.262;17.058;2023-04-09T10:48:12;78.38;;;48.13;;
51560;SDS011;37654;51.262;17.058;2023-04-09T10:50:38;69.63;;;43.78;;
51560;SDS011;37654;51.262;17.058;2023-04-09T10:53:09;64.00;;;39.75;;
51560;SDS011;37654;51.262;17.058;2023-04-09T10:55:49;56.63;;;33.88;;
51560;SDS011;37654;51.262;17.058;2023-04-09T10:58:16;72.72;;;42.30;;
51560;SDS011;37654;51.262;17.058;2023-04-09T11:00:42;83.78;;;43.60;;
51560;SDS011;37654;51.262;17.058;2023-04-09T11:03:19;84.82;;;51.95;;
51560;SDS011;37654;51.262;17.058;2023-04-09T11:08:43;79.60;;;45.80;;
51560;SDS011;37654;51.262;17.058;2023-04-09T11:11:08;102.78;;;56.35;;
51560;SDS011;37654;51.262;17.058;2023-04-09T11:13:35;97.30;;;49.85;;
51560;SDS011;37654;51.262;17.058;2023-04-09T11:16:01;57.13;;;34.55;;
51560;SDS011;37654;51.262;17.058;2023-04-09T11:18:30;59.88;;;32.17;;
51560;SDS011;37654;51.262;17.058;2023-04-09T11:20:59;88.95;;;43.00;;
51560;SDS011;37654;51.262;17.058;2023-04-09T11:23:26;64.63;;;36.58;;
51560;SDS011;37654;51.262;17.058;2023-04-09T11:25:52;57.45;;;33.70;;
51560;SDS011;37654;51.262;17.058;2023-04-09T11:28:18;61.47;;;35.20;;
51560;SDS011;37654;51.262;17.058;2023-04-09T11:30:45;63.55;;;36.67;;
51560;SDS011;37654;51.262;17.058;2023-04-09T11:33:11;58.25;;;34.72;;
51560;SDS011;37654;51.262;17.058;2023-04-09T11:35:37;63.63;;;36.58;;
51560;SDS011;37654;51.262;17.058;2023-04-09T11:38:06;63.78;;;35.05;;
51560;SDS011;37654;51.262;17.058;2023-04-09T11:40:32;71.15;;;39.00;;
51560;SDS011;37654;51.262;17.058;2023-04-09T11:42:58;73.47;;;39.28;;
51560;SDS011;37654;51.262;17.058;2023-04-09T11:45:24;81.32;;;42.38;;
51560;SDS011;37654;51.262;17.058;2023-04-09T11:47:51;83.45;;;43.85;;
51560;SDS011;37654;51.262;17.058;2023-04-09T11:50:17;74.68;;;40.38;;
51560;SDS011;37654;51.262;17.058;2023-04-09T11:52:43;76.90;;;40.85;;
51560;SDS011;37654;51.262;17.058;2023-04-09T11:55:09;61.75;;;35.72;;
51560;SDS011;37654;51.262;17.058;2023-04-09T11:57:42;71.25;;;38.90;;
51560;SDS011;37654;51.262;17.058;2023-04-09T12:00:09;63.85;;;37.58;;
51560;SDS011;37654;51.262;17.058;2023-04-09T12:02:45;63.40;;;36.53;;
51560;SDS011;37654;51.262;17.058;2023-04-09T12:07:56;64.80;;;35.65;;
51560;SDS011;37654;51.262;17.058;2023-04-09T12:10:31;66.28;;;34.97;;
51560;SDS011;37654;51.262;17.058;2023-04-09T12:13:07;64.20;;;35.40;;
51560;SDS011;37654;51.262;17.058;2023-04-09T12:15:38;70.95;;;39.08;;
51560;SDS011;37654;51.262;17.058;2023-04-09T12:18:07;67.75;;;37.45;;
51560;SDS011;37654;51.262;17.058;2023-04-09T12:20:35;69.97;;;38.38;;
51560;SDS011;37654;51.262;17.058;2023-04-09T12:23:03;70.43;;;38.85;;
51560;SDS011;37654;51.262;17.058;2023-04-09T12:25:30;67.25;;;36.40;;
51560;SDS011;37654;51.262;17.058;2023-04-09T12:27:56;67.38;;;36.63;;
51560;SDS011;37654;51.262;17.058;2023-04-09T12:30:22;70.20;;;38.17;;
51560;SDS011;37654;51.262;17.058;2023-04-09T12:32:49;67.20;;;36.80;;
51560;SDS011;37654;51.262;17.058;2023-04-09T12:35:14;65.53;;;36.97;;
51560;SDS011;37654;51.262;17.058;2023-04-09T12:37:41;64.53;;;35.67;;
51560;SDS011;37654;51.262;17.058;2023-04-09T12:40:07;61.03;;;33.90;;
51560;SDS011;37654;51.262;17.058;2023-04-09T12:42:33;62.55;;;35.58;;
51560;SDS011;37654;51.262;17.058;2023-04-09T12:44:58;61.55;;;34.78;;
51560;SDS011;37654;51.262;17.058;2023-04-09T12:47:24;63.13;;;35.47;;
51560;SDS011;37654;51.262;17.058;2023-04-09T12:49:49;59.22;;;35.28;;
51560;SDS011;37654;51.262;17.058;2023-04-09T12:52:15;70.78;;;37.25;;
51560;SDS011;37654;51.262;17.058;2023-04-09T12:54:42;62.60;;;35.03;;
51560;SDS011;37654;51.262;17.058;2023-04-09T12:57:08;63.58;;;36.42;;
51560;SDS011;37654;51.262;17.058;2023-04-09T12:59:33;61.15;;;34.75;;
51560;SDS011;37654;51.262;17.058;2023-04-09T13:01:59;71.00;;;41.42;;
51560;SDS011;37654;51.262;17.058;2023-04-09T13:04:24;61.10;;;37.17;;
51560;SDS011;37654;51.262;17.058;2023-04-09T13:06:50;63.42;;;36.83;;
51560;SDS011;37654;51.262;17.058;2023-04-09T13:09:16;85.28;;;45.30;;
51560;SDS011;37654;51.262;17.058;2023-04-09T13:11:41;81.95;;;45.30;;
51560;SDS011;37654;51.262;17.058;2023-04-09T13:14:06;86.30;;;47.65;;
51560;SDS011;37654;51.262;17.058;2023-04-09T13:16:37;74.00;;;42.58;;
51560;SDS011;37654;51.262;17.058;2023-04-09T13:19:06;65.22;;;37.80;;
51560;SDS011;37654;51.262;17.058;2023-04-09T13:21:32;64.05;;;38.25;;
51560;SDS011;37654;51.262;17.058;2023-04-09T13:23:58;59.83;;;35.17;;
51560;SDS011;37654;51.262;17.058;2023-04-09T13:26:23;74.47;;;43.08;;
51560;SDS011;37654;51.262;17.058;2023-04-09T13:28:49;69.28;;;43.30;;
51560;SDS011;37654;51.262;17.058;2023-04-09T13:31:16;68.88;;;41.53;;
51560;SDS011;37654;51.262;17.058;2023-04-09T13:33:42;67.60;;;40.40;;
51560;SDS011;37654;51.262;17.058;2023-04-09T13:36:07;64.60;;;36.60;;
51560;SDS011;37654;51.262;17.058;2023-04-09T13:38:33;66.72;;;37.03;;
51560;SDS011;37654;51.262;17.058;2023-04-09T13:40:58;64.70;;;37.88;;
51560;SDS011;37654;51.262;17.058;2023-04-09T13:43:24;71.63;;;38.83;;
51560;SDS011;37654;51.262;17.058;2023-04-09T13:45:52;64.30;;;37.50;;
51560;SDS011;37654;51.262;17.058;2023-04-09T13:48:18;64.15;;;39.08;;
51560;SDS011;37654;51.262;17.058;2023-04-09T13:50:45;64.50;;;37.60;;
51560;SDS011;37654;51.262;17.058;2023-04-09T13:53:10;69.75;;;40.25;;
51560;SDS011;37654;51.262;17.058;2023-04-09T13:55:36;67.38;;;37.92;;
51560;SDS011;37654;51.262;17.058;2023-04-09T13:58:01;75.35;;;42.38;;
51560;SDS011;37654;51.262;17.058;2023-04-09T14:00:26;69.75;;;38.00;;
51560;SDS011;37654;51.262;17.058;2023-04-09T14:02:52;71.15;;;39.83;;
51560;SDS011;37654;51.262;17.058;2023-04-09T14:05:17;70.40;;;41.88;;
51560;SDS011;37654;51.262;17.058;2023-04-09T14:07:43;68.60;;;37.60;;
51560;SDS011;37654;51.262;17.058;2023-04-09T14:10:08;72.78;;;43.58;;
51560;SDS011;37654;51.262;17.058;2023-04-09T14:12:34;68.82;;;37.67;;
51560;SDS011;37654;51.262;17.058;2023-04-09T14:14:59;67.70;;;38.58;;
51560;SDS011;37654;51.262;17.058;2023-04-09T14:17:25;68.93;;;39.75;;
51560;SDS011;37654;51.262;17.058;2023-04-09T14:19:50;65.13;;;37.80;;
51560;SDS011;37654;51.262;17.058;2023-04-09T14:22:16;66.72;;;39.67;;
51560;SDS011;37654;51.262;17.058;2023-04-09T14:24:41;69.05;;;40.33;;
51560;SDS011;37654;51.262;17.058;2023-04-09T14:27:07;73.20;;;41.53;;
51560;SDS011;37654;51.262;17.058;2023-04-09T14:29:33;75.90;;;43.17;;
51560;SDS011;37654;51.262;17.058;2023-04-09T14:31:59;84.25;;;42.72;;
51560;SDS011;37654;51.262;17.058;2023-04-09T14:34:28;63.67;;;38.08;;